Time;durP1;ratioP1;P1;durP2;ratioP2;P2;SDS_P1;SDS_P2;PMS_P1;PMS_P2;Temp;Humidity;BMP_temperature;BMP_pressure;BME280_temperature;BME280_humidity;BME280_pressure;Samples;Min_cycle;Max_cycle;Signal;HPM_P1;HPM_P2
2023/10/27 00:02:06;;;;;;;5.60;2.10;;;;;;;10.61;93.25;93476.50;6098996;23;20247;-83
2023/10/27 00:04:31;;;;;;;7.23;2.37;;;;;;;10.47;94.55;93470.47;6098386;23;20156;-82
2023/10/27 00:06:57;;;;;;;4.63;2.20;;;;;;;10.44;95.11;93466.47;6123179;23;20170;-85
2023/10/27 00:09:22;;;;;;;7.80;2.27;;;;;;;10.44;94.66;93461.28;6123646;23;20180;-83
2023/10/27 00:11:47;;;;;;;5.93;2.53;;;;;;;10.46;95.06;93463.69;6123535;23;20183;-82
2023/10/27 00:14:13;;;;;;;9.97;2.47;;;;;;;10.47;94.57;93463.47;6098132;23;20176;-83
2023/10/27 00:16:38;;;;;;;8.70;2.47;;;;;;;10.40;95.61;93465.25;6147983;23;20156;-82
2023/10/27 00:19:03;;;;;;;4.03;2.10;;;;;;;10.43;95.56;93461.50;6098634;23;20231;-83
2023/10/27 00:21:29;;;;;;;5.60;2.37;;;;;;;10.47;95.21;93460.09;6125514;23;20166;-84
2023/10/27 00:23:54;;;;;;;7.27;2.70;;;;;;;10.52;94.77;93462.09;6122516;23;20160;-83
2023/10/27 00:26:19;;;;;;;9.03;2.67;;;;;;;10.56;94.67;93469.28;6098013;23;20160;-85
2023/10/27 00:28:46;;;;;;;9.00;2.47;;;;;;;10.57;94.50;93468.28;6098478;23;20250;-83
2023/10/27 00:31:12;;;;;;;6.50;2.37;;;;;;;10.43;95.19;93475.25;6098586;23;20160;-82
2023/10/27 00:33:37;;;;;;;7.00;2.87;;;;;;;10.45;95.75;93472.47;6123333;23;20171;-84
2023/10/27 00:36:03;;;;;;;6.40;2.60;;;;;;;10.32;95.78;93468.03;6122377;23;20511;-82
2023/10/27 00:38:30;;;;;;;5.03;2.30;;;;;;;10.26;96.42;93468.84;6147647;23;20266;-82
2023/10/27 00:40:55;;;;;;;6.97;2.53;;;;;;;10.32;96.39;93462.84;6098781;23;20164;-83
2023/10/27 00:43:20;;;;;;;5.23;2.37;;;;;;;10.37;95.91;93464.88;6098727;23;20255;-83
2023/10/27 00:45:47;;;;;;;5.93;2.53;;;;;;;10.41;95.68;93466.06;6098119;23;20172;-83
2023/10/27 00:48:13;;;;;;;4.73;2.33;;;;;;;10.44;95.11;93468.28;6122853;23;20282;-83
2023/10/27 00:50:38;;;;;;;9.43;2.70;;;;;;;10.26;95.47;93462.84;6098841;23;20191;-83
2023/10/27 00:53:04;;;;;;;7.77;2.30;;;;;;;10.30;95.99;93453.66;6097739;23;20160;-84
2023/10/27 00:55:29;;;;;;;4.07;2.20;;;;;;;10.29;95.74;93455.47;6122465;23;20180;-84
2023/10/27 00:57:56;;;;;;;7.27;2.63;;;;;;;10.24;95.54;93455.25;6098568;23;20691;-82
2023/10/27 01:00:22;;;;;;;4.00;2.00;;;;;;;10.33;95.02;93448.06;6122869;23;20211;-83
2023/10/27 01:02:47;;;;;;;5.43;2.03;;;;;;;10.23;94.84;93448.47;6097975;23;20160;-84
2023/10/27 01:05:15;;;;;;;5.13;1.77;;;;;;;10.23;94.14;93445.88;6122184;23;20211;-84
2023/10/27 01:07:40;;;;;;;5.27;1.80;;;;;;;10.05;94.65;93446.38;6122765;23;20516;-84
2023/10/27 01:10:06;;;;;;;6.40;2.93;;;;;;;9.93;95.30;93453.94;6123129;23;20162;-84
2023/10/27 01:12:33;;;;;;;2.23;1.10;;;;;;;10.15;94.41;93452.00;6124182;23;20219;-83
2023/10/27 01:14:58;;;;;;;5.47;1.60;;;;;;;10.16;94.83;93450.22;6097922;23;20184;-83
2023/10/27 01:17:23;;;;;;;5.27;1.80;;;;;;;9.99;94.54;93452.38;6098269;23;20481;-83
2023/10/27 01:19:49;;;;;;;3.27;1.40;;;;;;;10.14;93.63;93437.44;6098327;23;20164;-82
2023/10/27 01:22:15;;;;;;;6.93;1.70;;;;;;;10.07;93.67;93441.00;6122779;23;20507;-85
2023/10/27 01:24:41;;;;;;;4.70;1.40;;;;;;;10.00;93.72;93443.59;6097861;23;20218;-83
2023/10/27 01:27:06;;;;;;;4.37;1.50;;;;;;;10.06;93.52;93442.00;6098769;23;20664;-85
2023/10/27 01:29:31;;;;;;;2.43;1.20;;;;;;;10.01;92.83;93437.41;6122281;23;20195;-84
2023/10/27 01:31:57;;;;;;;3.17;1.23;;;;;;;9.97;93.77;93432.81;6123979;23;20218;-83
2023/10/27 01:34:22;;;;;;;4.80;1.60;;;;;;;10.16;92.49;93429.47;6097334;23;20166;-82
2023/10/27 01:36:47;;;;;;;6.40;1.97;;;;;;;9.99;93.85;93431.63;6097697;23;20250;-83
2023/10/27 01:39:13;;;;;;;5.30;2.90;;;;;;;10.05;93.48;93430.84;6097912;23;20326;-80
2023/10/27 01:41:39;;;;;;;5.90;1.37;;;;;;;10.14;92.89;93421.06;6097993;23;20155;-82
2023/10/27 01:44:04;;;;;;;2.87;1.27;;;;;;;10.20;92.74;93422.91;6121872;23;20199;-83
2023/10/27 01:46:29;;;;;;;3.70;1.60;;;;;;;10.12;92.92;93426.47;6122022;23;20615;-83
2023/10/27 01:48:55;;;;;;;3.10;1.40;;;;;;;10.14;92.93;93419.28;6098291;23;20254;-84
2023/10/27 01:51:20;;;;;;;3.37;1.50;;;;;;;10.13;93.04;93416.88;6122969;23;20646;-83
2023/10/27 01:53:46;;;;;;;3.20;1.30;;;;;;;10.04;92.79;93408.50;6123717;23;20913;-83
2023/10/27 01:56:11;;;;;;;3.10;1.23;;;;;;;10.08;92.86;93403.72;6099869;23;20507;-82
2023/10/27 01:58:40;;;;;;;2.67;1.47;;;;;;;10.03;93.40;93411.28;6101749;23;20184;-83
2023/10/27 02:01:06;;;;;;;3.57;1.20;;;;;;;9.78;94.45;93404.03;6105421;23;20164;-85
2023/10/27 02:03:32;;;;;;;2.27;1.40;;;;;;;9.79;94.52;93395.25;6136123;23;20171;-86
2023/10/27 02:05:58;;;;;;;5.97;1.43;;;;;;;9.88;94.50;93393.28;6109671;23;20163;-86
2023/10/27 02:08:23;;;;;;;2.30;1.70;;;;;;;9.87;93.89;93400.25;6129291;23;20198;-85
2023/10/27 02:10:48;;;;;;;3.47;1.30;;;;;;;9.78;94.46;93388.47;6104695;23;20191;-85
2023/10/27 02:13:14;;;;;;;4.00;1.30;;;;;;;9.91;93.99;93385.94;6104365;23;20164;-84
2023/10/27 02:15:39;;;;;;;4.27;1.43;;;;;;;9.94;93.49;93385.53;6103747;23;20227;-84
2023/10/27 02:18:04;;;;;;;2.87;1.27;;;;;;;9.83;93.96;93390.50;6080549;23;20253;-85
2023/10/27 02:20:30;;;;;;;3.90;1.30;;;;;;;9.79;93.66;93395.25;6127560;23;20156;-83
2023/10/27 02:22:55;;;;;;;4.77;1.20;;;;;;;9.86;93.81;93392.69;6103352;23;20248;-85
2023/10/27 02:25:21;;;;;;;4.17;1.60;;;;;;;9.86;93.42;93393.50;6102483;23;20164;-85
2023/10/27 02:27:46;;;;;;;3.07;1.20;;;;;;;9.89;93.32;93395.72;6127040;23;20191;-84
2023/10/27 02:30:11;;;;;;;2.30;1.20;;;;;;;9.89;92.91;93400.06;6102074;23;20160;-83
2023/10/27 02:32:37;;;;;;;2.80;1.40;;;;;;;9.97;92.55;93399.09;6127793;23;20160;-83
2023/10/27 02:35:02;;;;;;;4.10;1.10;;;;;;;9.95;92.22;93388.94;6124127;23;20163;-84
2023/10/27 02:37:27;;;;;;;2.97;1.10;;;;;;;9.83;92.71;93391.28;6148386;23;20170;-83
2023/10/27 02:39:53;;;;;;;2.27;0.97;;;;;;;9.89;92.29;93393.13;6099964;23;20196;-84
2023/10/27 02:42:18;;;;;;;4.70;1.47;;;;;;;9.99;91.68;93391.94;6102800;23;20164;-84
2023/10/27 02:44:44;;;;;;;3.03;1.13;;;;;;;10.04;91.74;93392.13;6101779;23;20623;-84
2023/10/27 02:47:09;;;;;;;2.33;1.17;;;;;;;10.08;92.11;93383.78;6078087;23;20207;-83
2023/10/27 02:49:34;;;;;;;3.10;1.20;;;;;;;10.12;91.66;93381.56;6126118;23;20201;-84
2023/10/27 02:51:59;;;;;;;1.57;1.27;;;;;;;10.13;91.61;93368.41;6125598;23;20250;-85
2023/10/27 02:54:25;;;;;;;2.57;1.40;;;;;;;10.04;93.11;93374.78;6102158;23;20160;-83
2023/10/27 02:56:50;;;;;;;4.20;1.70;;;;;;;10.06;93.27;93370.19;6128045;23;20152;-83
2023/10/27 02:59:16;;;;;;;3.50;1.80;;;;;;;10.08;93.33;93370.81;6102779;23;20210;-84
2023/10/27 03:01:44;;;;;;;2.00;1.60;;;;;;;10.13;92.96;93371.00;6104854;23;20156;-82
2023/10/27 03:04:10;;;;;;;4.47;1.90;;;;;;;10.05;93.96;93358.22;6101825;23;20167;-85
2023/10/27 03:06:36;;;;;;;3.03;1.60;;;;;;;10.15;93.24;93350.06;6102666;23;20164;-85
2023/10/27 03:09:02;;;;;;;3.97;2.63;;;;;;;10.10;93.57;93352.47;6102024;23;20616;-84
2023/10/27 03:11:27;;;;;;;4.10;1.80;;;;;;;10.02;93.25;93363.03;6127085;23;20639;-85
2023/10/27 03:13:53;;;;;;;2.73;1.53;;;;;;;10.07;94.00;93364.03;6128774;23;20168;-83
2023/10/27 03:16:18;;;;;;;3.33;1.40;;;;;;;10.12;93.97;93369.41;6123852;23;20605;-83
2023/10/27 03:18:44;;;;;;;3.20;1.60;;;;;;;10.09;92.97;93364.63;6124682;23;20183;-82
2023/10/27 03:21:09;;;;;;;1.83;1.50;;;;;;;10.08;93.77;93352.66;6124871;23;20163;-85
2023/10/27 03:23:35;;;;;;;2.17;1.37;;;;;;;10.14;93.51;93357.03;6100090;23;20156;-82
2023/10/27 03:26:00;;;;;;;4.87;1.37;;;;;;;10.12;93.83;93353.06;6101197;23;20160;-85
2023/10/27 03:28:25;;;;;;;2.10;1.37;;;;;;;10.08;94.34;93346.69;6127815;23;20187;-84
2023/10/27 03:30:51;;;;;;;3.60;1.60;;;;;;;10.11;93.81;93339.28;6125570;23;20291;-84
2023/10/27 03:33:17;;;;;;;6.60;1.60;;;;;;;10.04;93.97;93343.66;6127459;23;20473;-85
2023/10/27 03:35:44;;;;;;;2.63;1.30;;;;;;;10.06;93.94;93340.88;6125895;23;20617;-86
2023/10/27 03:38:10;;;;;;;4.80;1.53;;;;;;;10.06;94.66;93343.47;6125915;23;20172;-86
2023/10/27 03:40:38;;;;;;;2.60;1.40;;;;;;;10.10;93.90;93340.28;6126836;23;20184;-85
2023/10/27 03:43:03;;;;;;;3.47;1.80;;;;;;;10.05;93.87;93341.88;6076448;23;20234;-84
2023/10/27 03:45:29;;;;;;;5.60;1.40;;;;;;;9.92;94.90;93351.22;6124688;23;20152;-86
2023/10/27 03:47:54;;;;;;;3.53;1.60;;;;;;;9.89;94.89;93343.88;6127276;23;20184;-84
2023/10/27 03:50:20;;;;;;;5.00;1.50;;;;;;;9.94;95.30;93341.47;6124640;23;20156;-82
2023/10/27 03:52:45;;;;;;;2.83;1.43;;;;;;;9.94;95.28;93346.66;6149486;23;20499;-86
2023/10/27 03:55:11;;;;;;;3.07;1.50;;;;;;;9.92;95.51;93340.88;6099074;23;20176;-84
2023/10/27 03:57:39;;;;;;;1.80;1.27;;;;;;;9.78;96.24;93335.84;6148304;23;20191;-85
2023/10/27 04:00:07;;;;;;;5.93;1.40;;;;;;;9.81;96.27;93345.84;6099831;23;20198;-85
2023/10/27 04:02:33;;;;;;;2.33;1.83;;;;;;;9.94;95.72;93349.25;6124716;23;20160;-83
2023/10/27 04:04:58;;;;;;;3.73;1.50;;;;;;;9.85;96.02;93347.81;6098529;23;20600;-84
2023/10/27 04:07:23;;;;;;;1.67;1.20;;;;;;;9.83;96.06;93347.22;6099126;23;20214;-81
2023/10/27 04:09:49;;;;;;;2.33;1.20;;;;;;;9.78;96.40;93346.22;6149128;23;20271;-84
2023/10/27 04:12:14;;;;;;;3.13;1.50;;;;;;;9.78;96.52;93341.81;6124668;23;20160;-82
2023/10/27 04:14:40;;;;;;;3.63;1.60;;;;;;;9.91;95.90;93341.88;6125092;23;20176;-84
2023/10/27 04:17:05;;;;;;;3.23;1.40;;;;;;;9.90;96.04;93340.28;6126482;23;20152;-82
2023/10/27 04:19:33;;;;;;;3.00;1.30;;;;;;;9.90;96.33;93335.09;6099576;23;20173;-84
2023/10/27 04:21:58;;;;;;;4.67;1.50;;;;;;;9.99;95.28;93342.69;6099626;23;20152;-83
2023/10/27 04:24:24;;;;;;;3.70;1.63;;;;;;;9.93;95.54;93341.66;6098548;23;20210;-84
2023/10/27 04:26:49;;;;;;;2.50;1.70;;;;;;;9.90;95.86;93339.47;6098925;23;20247;-83
2023/10/27 04:29:15;;;;;;;1.80;1.70;;;;;;;9.80;96.11;93344.22;6098328;23;20199;-84
2023/10/27 04:31:40;;;;;;;4.33;2.00;;;;;;;9.76;96.43;93336.03;6124056;23;20160;-82
2023/10/27 04:34:06;;;;;;;2.03;1.60;;;;;;;9.81;96.94;93340.66;6098418;23;20192;-83
2023/10/27 04:36:31;;;;;;;2.30;1.30;;;;;;;9.81;96.92;93338.06;6124070;23;20164;-83
2023/10/27 04:38:56;;;;;;;3.43;1.67;;;;;;;9.69;97.29;93343.00;6123456;23;20644;-83
2023/10/27 04:41:27;;;;;;;1.50;1.40;;;;;;;9.81;96.58;93351.81;6100169;23;20620;-84
2023/10/27 04:43:52;;;;;;;4.33;1.40;;;;;;;9.78;96.73;93359.16;6099686;23;20197;-81
2023/10/27 04:46:18;;;;;;;2.80;1.40;;;;;;;9.81;96.50;93351.81;6125034;23;20551;-84
2023/10/27 04:48:43;;;;;;;2.27;1.33;;;;;;;9.84;96.49;93355.81;6124284;23;20195;-83
2023/10/27 04:51:09;;;;;;;3.00;1.40;;;;;;;9.90;96.20;93357.63;6125820;23;20163;-85
2023/10/27 04:53:36;;;;;;;2.53;1.33;;;;;;;9.62;97.43;93353.34;6099848;23;20269;-85
2023/10/27 04:56:01;;;;;;;2.60;1.57;;;;;;;9.87;96.14;93356.19;6123179;23;20287;-84
2023/10/27 04:58:39;;;;;;;2.57;1.40;;;;;;;9.82;96.42;93355.22;6148838;23;20172;-85
2023/10/27 05:01:05;;;;;;;2.53;1.10;;;;;;;9.91;96.20;93347.03;6099967;23;20488;-82
2023/10/27 05:03:30;;;;;;;3.70;1.40;;;;;;;9.79;96.26;93353.78;6123680;23;20171;-84
2023/10/27 05:06:06;;;;;;;2.13;1.00;;;;;;;9.88;96.31;93352.59;6128729;23;20210;-87
2023/10/27 05:08:31;;;;;;;1.97;1.13;;;;;;;9.83;96.34;93347.22;6137090;23;20187;-86
2023/10/27 05:10:59;;;;;;;2.93;1.40;;;;;;;9.79;96.73;93353.00;6109422;23;20152;-84
2023/10/27 05:13:25;;;;;;;1.20;1.00;;;;;;;9.77;96.24;93353.19;6155336;23;20202;-84
2023/10/27 05:15:54;;;;;;;1.17;0.90;;;;;;;9.77;96.36;93348.00;6105717;23;20164;-85
2023/10/27 05:18:19;;;;;;;2.40;1.23;;;;;;;9.91;95.28;93347.03;6106364;23;20620;-85
2023/10/27 05:20:45;;;;;;;1.80;0.93;;;;;;;9.73;96.50;93353.78;6106262;23;20163;-84
2023/10/27 05:23:10;;;;;;;2.77;1.10;;;;;;;9.79;95.71;93351.19;6106456;23;20199;-85
2023/10/27 05:25:35;;;;;;;1.10;0.90;;;;;;;9.81;96.21;93369.97;6130548;23;20210;-83
2023/10/27 05:28:01;;;;;;;0.60;0.60;;;;;;;9.78;96.30;93361.75;6130772;23;20187;-84
2023/10/27 05:30:26;;;;;;;1.37;1.00;;;;;;;9.76;96.28;93371.53;6130287;23;20151;-85
2023/10/27 05:32:52;;;;;;;1.63;1.10;;;;;;;9.71;96.44;93371.31;6128369;23;20193;-86
2023/10/27 05:35:18;;;;;;;3.30;1.07;;;;;;;9.65;97.25;93372.91;6152512;23;20457;-85
2023/10/27 05:37:43;;;;;;;2.60;1.10;;;;;;;9.80;96.28;93375.31;6129607;23;20172;-86
2023/10/27 05:40:09;;;;;;;2.40;1.00;;;;;;;9.56;98.09;93380.03;6103030;23;20818;-85
2023/10/27 05:42:37;;;;;;;2.47;0.90;;;;;;;9.46;99.23;93389.19;6128033;23;20156;-86
2023/10/27 05:45:03;;;;;;;2.43;1.20;;;;;;;9.44;99.70;93391.94;6100733;23;20160;-85
2023/10/27 05:47:28;;;;;;;1.87;1.00;;;;;;;9.45;99.58;93401.31;6128774;23;20168;-85
2023/10/27 05:49:54;;;;;;;1.87;1.20;;;;;;;9.46;99.68;93418.47;6150223;23;20160;-86
2023/10/27 05:52:20;;;;;;;1.50;1.00;;;;;;;9.68;99.05;93424.34;6150039;23;20187;-86
2023/10/27 05:54:46;;;;;;;3.00;1.03;;;;;;;9.72;98.62;93415.19;6125483;23;20160;-85
2023/10/27 05:57:11;;;;;;;2.37;1.00;;;;;;;9.77;98.23;93422.38;6102430;23;20156;-84
2023/10/27 05:59:36;;;;;;;0.87;0.73;;;;;;;9.72;98.45;93425.56;6125996;23;20172;-84
2023/10/27 06:02:02;;;;;;;3.17;0.90;;;;;;;9.55;99.50;93432.06;6150401;23;20230;-83
2023/10/27 06:04:30;;;;;;;0.77;0.53;;;;;;;9.68;98.78;93426.13;6124470;23;20560;-86
2023/10/27 06:06:55;;;;;;;0.60;0.60;;;;;;;9.64;98.60;93430.91;6101732;23;20175;-82
2023/10/27 06:09:21;;;;;;;1.03;0.80;;;;;;;9.70;97.57;93427.53;6104710;23;20843;-81
2023/10/27 06:11:46;;;;;;;0.83;0.57;;;;;;;9.79;97.01;93423.78;6104309;23;20223;-80
2023/10/27 06:14:11;;;;;;;3.90;2.53;;;;;;;9.84;95.85;93428.38;6125671;23;20174;-83
2023/10/27 06:16:42;;;;;;;1.37;1.23;;;;;;;9.90;95.72;93440.59;6100247;23;20164;-83
2023/10/27 06:19:21;;;;;;;1.60;1.50;;;;;;;9.87;94.56;93428.78;6098321;23;20711;-83
2023/10/27 06:21:49;;;;;;;5.03;3.70;;;;;;;9.85;94.12;93429.97;6100074;23;20160;-81
2023/10/27 06:24:14;;;;;;;8.27;5.43;;;;;;;9.76;92.79;93438.91;6098200;23;20627;-83
2023/10/27 06:26:39;;;;;;;46.53;30.00;;;;;;;10.02;92.73;93436.41;6098748;23;20167;-82
2023/10/27 06:29:05;;;;;;;9.30;6.90;;;;;;;9.88;92.58;93442.53;6151615;23;20188;-82
2023/10/27 06:31:30;;;;;;;0.40;0.40;;;;;;;9.86;92.09;93453.13;6118373;23;20163;-82
2023/10/27 06:33:56;;;;;;;1.03;0.50;;;;;;;9.81;91.26;93452.13;6115197;23;20164;-83
2023/10/27 06:36:21;;;;;;;0.60;0.50;;;;;;;9.90;91.26;93451.75;6162178;23;20159;-84
2023/10/27 06:38:47;;;;;;;1.13;0.70;;;;;;;9.92;91.91;93456.72;6158880;23;20247;-84
2023/10/27 06:41:12;;;;;;;0.70;0.70;;;;;;;9.97;91.08;93453.53;6102408;23;20168;-85
2023/10/27 06:43:37;;;;;;;0.60;0.60;;;;;;;10.15;90.29;93451.19;6102389;23;20170;-85
2023/10/27 06:46:03;;;;;;;0.37;0.37;;;;;;;9.89;90.67;93467.47;6099549;23;20159;-84
2023/10/27 06:48:28;;;;;;;0.60;0.50;;;;;;;9.97;91.01;93461.31;6095910;23;20210;-85
2023/10/27 06:50:53;;;;;;;1.10;0.63;;;;;;;10.24;89.81;93468.22;6098307;23;20156;-84
2023/10/27 06:53:19;;;;;;;0.40;0.40;;;;;;;10.34;89.01;93478.25;6123266;23;20164;-84
2023/10/27 06:55:44;;;;;;;1.40;0.40;;;;;;;10.21;89.07;93471.97;6121334;23;20167;-85
2023/10/27 06:58:12;;;;;;;0.50;0.50;;;;;;;10.21;89.11;93481.56;6099933;23;20176;-86
2023/10/27 07:00:38;;;;;;;0.97;0.73;;;;;;;10.10;89.26;93479.53;6125213;23;20508;-84
2023/10/27 07:03:03;;;;;;;0.63;0.50;;;;;;;10.20;88.81;93479.97;6123239;23;20254;-83
2023/10/27 07:05:29;;;;;;;0.50;0.40;;;;;;;10.06;88.54;93476.50;6120503;23;20218;-83
2023/10/27 07:07:54;;;;;;;0.50;0.50;;;;;;;10.27;87.49;93480.81;6093104;23;20203;-83
2023/10/27 07:10:19;;;;;;;0.50;0.50;;;;;;;10.35;87.40;93485.81;6095421;23;20175;-83
2023/10/27 07:12:45;;;;;;;1.07;0.43;;;;;;;10.20;87.31;93485.16;6143524;23;20164;-83
2023/10/27 07:15:13;;;;;;;1.33;1.03;;;;;;;10.37;86.65;93485.63;6095965;23;20560;-85
2023/10/27 07:17:38;;;;;;;1.03;0.70;;;;;;;10.25;86.87;93493.19;6122734;23;20164;-83
2023/10/27 07:20:04;;;;;;;0.60;0.60;;;;;;;10.31;87.21;93494.19;6097810;23;20258;-83
2023/10/27 07:22:30;;;;;;;0.40;0.40;;;;;;;10.25;86.85;93485.41;6146653;23;20211;-82
2023/10/27 07:24:55;;;;;;;0.50;0.47;;;;;;;10.39;86.08;93489.59;6121521;23;20243;-82
2023/10/27 07:27:21;;;;;;;1.20;0.60;;;;;;;10.29;86.98;93485.78;6098603;23;20171;-86
2023/10/27 07:29:46;;;;;;;1.27;0.60;;;;;;;10.29;87.25;93494.38;6099424;23;20180;-83
2023/10/27 07:32:12;;;;;;;1.17;0.53;;;;;;;10.34;87.04;93486.81;6099022;23;20163;-84
2023/10/27 07:34:37;;;;;;;0.50;0.50;;;;;;;10.14;86.95;93491.09;6097423;23;20168;-83
2023/10/27 07:37:04;;;;;;;0.50;0.50;;;;;;;10.44;86.16;93494.22;6093694;23;20198;-83
2023/10/27 07:39:30;;;;;;;1.20;0.90;;;;;;;10.36;87.70;93487.41;6098797;23;21023;-82
2023/10/27 07:41:56;;;;;;;0.83;0.50;;;;;;;10.22;88.32;93503.94;6148485;23;20160;-83
2023/10/27 07:44:21;;;;;;;0.43;0.43;;;;;;;10.13;88.89;93499.88;6099408;23;20256;-79
2023/10/27 07:46:46;;;;;;;0.50;0.50;;;;;;;10.21;88.67;93508.28;6128148;23;20156;-78
2023/10/27 07:49:15;;;;;;;0.77;0.40;;;;;;;10.22;88.91;93511.72;6125765;23;20217;-83
2023/10/27 07:51:40;;;;;;;0.63;0.40;;;;;;;10.07;89.77;93501.47;6098511;23;20186;-78
2023/10/27 07:54:06;;;;;;;0.60;0.40;;;;;;;10.26;89.85;93497.38;6122001;23;20620;-80
2023/10/27 08:07:06;;;;;;;0.40;0.40;;;;;;;10.56;90.28;93530.78;6153597;23;20198;-83
2023/10/27 08:09:34;;;;;;;0.57;0.40;;;;;;;10.54;90.34;93537.97;6151104;23;20193;-85
2023/10/27 08:11:59;;;;;;;1.27;0.73;;;;;;;10.57;90.25;93547.94;6150618;23;20171;-82
2023/10/27 08:14:25;;;;;;;0.70;0.60;;;;;;;10.41;90.67;93562.06;6100934;23;20710;-83
2023/10/27 08:16:50;;;;;;;0.87;0.87;;;;;;;10.54;90.40;93559.53;6176935;23;20258;-81
2023/10/27 08:19:15;;;;;;;0.87;0.63;;;;;;;10.82;89.27;93564.56;6151764;23;20226;-84
2023/10/27 08:21:41;;;;;;;1.43;0.60;;;;;;;10.75;89.70;93558.56;6177900;23;20198;-81
2023/10/27 08:24:06;;;;;;;2.20;0.80;;;;;;;10.80;89.36;93571.75;6127356;23;20159;-83
2023/10/27 08:26:32;;;;;;;0.70;0.50;;;;;;;10.64;89.72;93579.91;6177919;23;20167;-83
2023/10/27 08:28:57;;;;;;;0.73;0.40;;;;;;;10.81;89.42;93567.38;6176431;23;20630;-84
2023/10/27 08:31:23;;;;;;;0.50;0.50;;;;;;;10.70;90.34;93576.53;6159010;23;20164;-83
2023/10/27 08:33:48;;;;;;;0.30;0.30;;;;;;;10.72;89.92;93570.16;6147760;23;20167;-83
2023/10/27 08:36:15;;;;;;;0.50;0.40;;;;;;;10.64;89.87;93580.72;6122675;23;20172;-83
2023/10/27 08:38:40;;;;;;;0.60;0.50;;;;;;;10.69;89.07;93573.16;6121627;23;20507;-84
2023/10/27 08:41:07;;;;;;;0.40;0.40;;;;;;;10.89;88.74;93580.97;6122363;23;20176;-82
2023/10/27 08:43:33;;;;;;;0.77;0.77;;;;;;;11.10;88.30;93579.19;6098208;23;20639;-82
2023/10/27 08:45:59;;;;;;;0.60;0.60;;;;;;;11.05;88.46;93583.19;6121926;23;20168;-83
2023/10/27 08:48:41;;;;;;;1.77;0.67;;;;;;;11.00;89.86;93595.16;6098134;23;20192;-85
2023/10/27 08:51:07;;;;;;;0.30;0.30;;;;;;;10.90;89.28;93597.34;6096348;23;20160;-83
2023/10/27 08:53:33;;;;;;;0.40;0.40;;;;;;;10.80;88.98;93605.50;6097557;23;20164;-81
2023/10/27 08:59:10;;;;;;;1.07;0.53;;;;;;;10.73;90.06;93615.06;6104953;23;20175;-82
2023/10/27 09:01:58;;;;;;;0.60;0.50;;;;;;;10.92;89.71;93614.31;6122310;23;20159;-84
2023/10/27 09:04:41;;;;;;;0.60;0.60;;;;;;;11.20;89.26;93631.56;6097462;23;20156;-82
2023/10/27 09:07:06;;;;;;;1.10;0.80;;;;;;;11.02;90.17;93637.31;6146463;23;20160;-81
2023/10/27 09:09:32;;;;;;;0.90;0.70;;;;;;;11.05;90.29;93631.75;6123094;23;20564;-82
2023/10/27 09:11:57;;;;;;;0.90;0.60;;;;;;;10.89;89.51;93640.69;6096890;23;20167;-82
2023/10/27 09:14:33;;;;;;;0.60;0.60;;;;;;;10.96;89.38;93653.69;6120667;23;20584;-82
2023/10/27 09:17:07;;;;;;;1.00;0.80;;;;;;;10.99;89.15;93656.69;6121573;23;20148;-82
2023/10/27 09:19:33;;;;;;;0.50;0.50;;;;;;;11.22;87.17;93650.34;6121144;23;20690;-81
2023/10/27 09:21:59;;;;;;;1.03;0.80;;;;;;;11.19;87.53;93655.94;6145672;23;20195;-82
2023/10/27 09:24:26;;;;;;;1.83;0.97;;;;;;;11.21;88.84;93656.53;6096095;23;20168;-81
2023/10/27 09:26:51;;;;;;;0.77;0.63;;;;;;;11.26;87.93;93661.94;6121540;23;20164;-82
2023/10/27 09:30:11;;;;;;;1.10;0.93;;;;;;;11.44;87.94;93663.97;6121505;23;20187;-83
2023/10/27 09:32:37;;;;;;;1.30;0.60;;;;;;;11.10;89.26;93677.91;6037948;23;20165;-83
2023/10/27 09:35:09;;;;;;;2.63;0.77;;;;;;;11.03;89.41;93677.88;6060907;23;20162;-83
2023/10/27 09:37:37;;;;;;;1.50;0.90;;;;;;;10.75;89.15;93675.38;6061275;23;20213;-85
2023/10/27 09:40:06;;;;;;;2.23;1.23;;;;;;;10.83;89.06;93677.03;6038880;23;20244;-79
2023/10/27 09:42:33;;;;;;;1.43;1.00;;;;;;;10.96;88.21;93679.69;6061822;23;20169;-84
2023/10/27 09:45:16;;;;;;;2.50;1.17;;;;;;;11.17;87.40;93682.13;6038009;23;20215;-84
2023/10/27 09:47:41;;;;;;;2.57;1.40;;;;;;;11.09;85.92;93677.09;6064141;23;20153;-85
2023/10/27 09:50:45;;;;;;;3.60;1.13;;;;;;;11.38;85.78;93681.16;6063551;23;20268;-84
2023/10/27 09:53:12;;;;;;;5.50;1.20;;;;;;;11.32;85.92;93693.16;5978671;24;20163;-83
2023/10/27 09:55:37;;;;;;;1.83;0.83;;;;;;;11.09;86.44;93691.88;5954510;24;20175;-83
2023/10/27 09:58:03;;;;;;;3.37;0.83;;;;;;;11.16;86.81;93695.31;5978070;24;20671;-84
2023/10/27 10:00:29;;;;;;;4.10;0.97;;;;;;;10.96;88.26;93708.25;5955562;24;20260;-83
2023/10/27 10:02:59;;;;;;;4.63;0.90;;;;;;;10.71;89.23;93718.31;5966527;24;20144;-84
2023/10/27 10:05:24;;;;;;;3.10;1.30;;;;;;;10.95;88.86;93702.22;5981433;23;20175;-84
2023/10/27 10:07:55;;;;;;;1.77;1.10;;;;;;;11.09;87.73;93717.88;6006960;23;20217;-84
2023/10/27 10:10:32;;;;;;;3.03;1.77;;;;;;;11.01;88.46;93719.63;6034851;23;20154;-83
2023/10/27 10:12:59;;;;;;;4.23;1.70;;;;;;;11.28;86.93;93723.09;6040697;23;20149;-84
2023/10/27 10:15:26;;;;;;;3.70;1.20;;;;;;;11.38;87.07;93727.13;6087292;23;20201;-83
2023/10/27 10:17:51;;;;;;;2.33;0.97;;;;;;;11.13;86.64;93734.66;6040055;23;20194;-84
2023/10/27 10:20:41;;;;;;;4.10;1.50;;;;;;;11.29;85.76;93731.69;6085656;23;20181;-83
2023/10/27 10:23:06;;;;;;;4.73;2.60;;;;;;;11.36;85.32;93735.13;6087528;23;20158;-84
2023/10/27 10:25:32;;;;;;;2.30;1.30;;;;;;;11.40;84.46;93736.34;6086907;23;20142;-83
2023/10/27 10:28:29;;;;;;;2.90;1.90;;;;;;;11.50;84.64;93741.97;6039325;23;20198;-80
2023/10/27 10:31:07;;;;;;;3.07;1.60;;;;;;;11.48;84.38;93737.94;6118819;23;20167;-86
2023/10/27 10:33:34;;;;;;;5.67;1.20;;;;;;;11.44;83.82;93739.34;6150584;23;20171;-84
2023/10/27 10:36:11;;;;;;;1.70;1.20;;;;;;;12.04;82.24;93735.06;6109803;23;20226;-83
2023/10/27 10:38:40;;;;;;;5.70;2.50;;;;;;;12.08;80.81;93734.44;6122889;23;20175;-83
2023/10/27 10:41:05;;;;;;;3.40;1.10;;;;;;;12.15;80.50;93729.22;6098662;23;20156;-83
2023/10/27 10:43:36;;;;;;;5.47;2.10;;;;;;;12.40;79.37;93732.81;6098081;23;20160;-83
2023/10/27 10:46:03;;;;;;;4.97;1.40;;;;;;;12.00;79.64;93737.22;6097780;23;20160;-83
2023/10/27 10:48:33;;;;;;;6.77;1.73;;;;;;;12.39;78.96;93735.63;6122756;23;20186;-84
2023/10/27 10:51:11;;;;;;;3.87;1.13;;;;;;;11.94;78.11;93726.84;6098389;23;20197;-83
2023/10/27 10:53:37;;;;;;;3.70;1.20;;;;;;;12.16;77.88;93725.63;6123419;23;20218;-84
2023/10/27 10:56:02;;;;;;;6.63;1.67;;;;;;;12.38;77.50;93734.84;6096760;23;20187;-84
2023/10/27 10:58:37;;;;;;;5.83;1.53;;;;;;;12.22;77.09;93724.84;6098009;23;20180;-84
2023/10/27 11:01:03;;;;;;;4.23;1.20;;;;;;;12.50;77.37;93721.97;6147059;23;20195;-84
2023/10/27 11:03:36;;;;;;;5.53;1.40;;;;;;;12.39;77.21;93712.19;6099852;23;20167;-84
2023/10/27 11:06:04;;;;;;;5.43;1.70;;;;;;;12.43;76.23;93714.19;6123684;23;20141;-83
2023/10/27 11:08:31;;;;;;;4.03;1.20;;;;;;;12.27;78.32;93716.41;6099059;23;20200;-84
2023/10/27 11:11:03;;;;;;;5.63;1.67;;;;;;;12.70;77.07;93714.91;6149100;23;20160;-82
2023/10/27 11:13:28;;;;;;;4.03;1.90;;;;;;;13.03;74.78;93712.19;6148867;23;20492;-83
2023/10/27 11:15:54;;;;;;;6.37;1.63;;;;;;;13.10;73.63;93712.19;6099932;23;20163;-84
2023/10/27 11:18:19;;;;;;;5.00;1.80;;;;;;;13.47;73.26;93713.22;6100653;23;20954;-84
2023/10/27 11:20:45;;;;;;;4.67;1.30;;;;;;;13.18;72.31;93719.75;6099846;23;20612;-82
2023/10/27 11:23:15;;;;;;;3.20;0.97;;;;;;;13.13;73.54;93711.75;6108723;23;20220;-84
2023/10/27 11:25:42;;;;;;;4.00;0.90;;;;;;;13.64;72.17;93728.38;6123688;23;20144;-82
2023/10/27 11:28:29;;;;;;;6.43;1.50;;;;;;;13.52;72.33;93716.00;6121443;23;20195;-86
2023/10/27 11:31:30;;;;;;;3.57;1.30;;;;;;;13.55;71.58;93720.78;6159283;23;20172;-85
2023/10/27 11:34:05;;;;;;;3.17;0.93;;;;;;;13.12;71.23;93714.56;6126651;23;20160;-82
2023/10/27 11:36:42;;;;;;;5.97;1.10;;;;;;;13.29;70.36;93719.13;6104951;23;20164;-85
2023/10/27 11:39:14;;;;;;;4.07;0.93;;;;;;;13.23;72.76;93719.16;6104930;23;20231;-84
2023/10/27 11:41:40;;;;;;;3.10;1.20;;;;;;;13.46;72.55;93714.22;6127992;23;20183;-83
2023/10/27 11:44:06;;;;;;;3.37;1.00;;;;;;;12.98;72.48;93713.81;6102516;23;20166;-83
2023/10/27 11:46:32;;;;;;;2.67;0.93;;;;;;;12.92;72.56;93722.47;6104201;23;20171;-84
2023/10/27 11:48:57;;;;;;;3.13;0.90;;;;;;;12.84;71.46;93720.09;6151816;23;20575;-83
2023/10/27 11:51:23;;;;;;;3.07;0.90;;;;;;;13.14;71.60;93722.97;6103065;23;20205;-82